sensor_id;sensor_type;location;lat;lon;timestamp;temperature;humidity
47482;DHT22;33219;47.410;9.730;2023-03-01T00:01:16;0.90;99.90
47482;DHT22;33219;47.410;9.730;2023-03-01T00:03:44;0.90;99.90
47482;DHT22;33219;47.410;9.730;2023-03-01T00:06:12;0.90;99.90
47482;DHT22;33219;47.410;9.730;2023-03-01T00:08:40;0.90;99.90
47482;DHT22;33219;47.410;9.730;2023-03-01T00:11:13;0.90;99.90
47482;DHT22;33219;47.410;9.730;2023-03-01T00:13:41;0.90;99.90
47482;DHT22;33219;47.410;9.730;2023-03-01T00:16:12;0.90;99.90
47482;DHT22;33219;47.410;9.730;2023-03-01T00:18:40;0.90;99.90
47482;DHT22;33219;47.410;9.730;2023-03-01T00:21:07;0.90;99.90
47482;DHT22;33219;47.410;9.730;2023-03-01T00:23:36;0.90;99.90
47482;DHT22;33219;47.410;9.730;2023-03-01T00:26:06;0.90;99.90
47482;DHT22;33219;47.410;9.730;2023-03-01T00:28:34;0.90;99.90
47482;DHT22;33219;47.410;9.730;2023-03-01T00:31:07;0.90;99.90
47482;DHT22;33219;47.410;9.730;2023-03-01T00:33:36;1.00;99.90
47482;DHT22;33219;47.410;9.730;2023-03-01T00:36:04;1.00;99.90
47482;DHT22;33219;47.410;9.730;2023-03-01T00:38:42;1.00;99.90
47482;DHT22;33219;47.410;9.730;2023-03-01T00:41:08;1.00;99.90
47482;DHT22;33219;47.410;9.730;2023-03-01T00:43:36;1.00;99.90
47482;DHT22;33219;47.410;9.730;2023-03-01T00:46:06;1.10;99.90
47482;DHT22;33219;47.410;9.730;2023-03-01T00:48:34;1.10;99.90
47482;DHT22;33219;47.410;9.730;2023-03-01T00:51:09;1.10;99.90
47482;DHT22;33219;47.410;9.730;2023-03-01T00:53:37;1.10;99.90
47482;DHT22;33219;47.410;9.730;2023-03-01T00:56:06;1.10;99.90
47482;DHT22;33219;47.410;9.730;2023-03-01T00:58:35;1.00;99.90
47482;DHT22;33219;47.410;9.730;2023-03-01T01:01:11;1.00;99.90
47482;DHT22;33219;47.410;9.730;2023-03-01T01:03:41;1.10;99.90
47482;DHT22;33219;47.410;9.730;2023-03-01T01:06:17;1.10;99.90
47482;DHT22;33219;47.410;9.730;2023-03-01T01:08:41;1.10;99.90
47482;DHT22;33219;47.410;9.730;2023-03-01T01:11:10;1.00;99.90
47482;DHT22;33219;47.410;9.730;2023-03-01T01:13:39;1.00;99.90
47482;DHT22;33219;47.410;9.730;2023-03-01T01:16:08;1.00;99.90
47482;DHT22;33219;47.410;9.730;2023-03-01T01:18:36;0.90;99.90
47482;DHT22;33219;47.410;9.730;2023-03-01T01:21:09;1.00;99.90
47482;DHT22;33219;47.410;9.730;2023-03-01T01:23:37;1.00;99.90
47482;DHT22;33219;47.410;9.730;2023-03-01T01:26:17;0.90;99.90
47482;DHT22;33219;47.410;9.730;2023-03-01T01:28:45;0.90;99.90
47482;DHT22;33219;47.410;9.730;2023-03-01T01:31:13;0.90;99.90
47482;DHT22;33219;47.410;9.730;2023-03-01T01:33:41;0.90;99.90
47482;DHT22;33219;47.410;9.730;2023-03-01T01:36:09;0.90;99.90
47482;DHT22;33219;47.410;9.730;2023-03-01T01:38:37;0.90;99.90
47482;DHT22;33219;47.410;9.730;2023-03-01T01:41:07;0.90;99.90
47482;DHT22;33219;47.410;9.730;2023-03-01T01:43:43;0.90;99.90
47482;DHT22;33219;47.410;9.730;2023-03-01T01:46:15;0.80;99.90
47482;DHT22;33219;47.410;9.730;2023-03-01T01:48:44;0.90;99.90
47482;DHT22;33219;47.410;9.730;2023-03-01T01:51:15;0.90;99.90
47482;DHT22;33219;47.410;9.730;2023-03-01T01:53:44;0.80;99.90
47482;DHT22;33219;47.410;9.730;2023-03-01T01:56:13;0.90;99.90
47482;DHT22;33219;47.410;9.730;2023-03-01T01:58:42;0.90;99.90
47482;DHT22;33219;47.410;9.730;2023-03-01T02:01:11;0.90;99.90
47482;DHT22;33219;47.410;9.730;2023-03-01T02:03:39;0.90;99.90
47482;DHT22;33219;47.410;9.730;2023-03-01T02:08:41;0.80;99.90
47482;DHT22;33219;47.410;9.730;2023-03-01T02:11:10;0.80;99.90
47482;DHT22;33219;47.410;9.730;2023-03-01T02:13:38;0.80;99.90
47482;DHT22;33219;47.410;9.730;2023-03-01T02:16:11;0.80;99.90
47482;DHT22;33219;47.410;9.730;2023-03-01T02:18:40;0.80;99.90
47482;DHT22;33219;47.410;9.730;2023-03-01T02:21:16;0.80;99.90
47482;DHT22;33219;47.410;9.730;2023-03-01T02:23:41;0.80;99.90
47482;DHT22;33219;47.410;9.730;2023-03-01T02:26:11;0.80;99.90
47482;DHT22;33219;47.410;9.730;2023-03-01T02:28:42;0.80;99.90
47482;DHT22;33219;47.410;9.730;2023-03-01T02:31:13;0.90;99.90
47482;DHT22;33219;47.410;9.730;2023-03-01T02:33:58;0.90;99.90
47482;DHT22;33219;47.410;9.730;2023-03-01T02:36:31;0.90;99.90
47482;DHT22;33219;47.410;9.730;2023-03-01T02:39:00;0.90;99.90
47482;DHT22;33219;47.410;9.730;2023-03-01T02:41:30;1.00;99.90
47482;DHT22;33219;47.410;9.730;2023-03-01T02:43:59;0.90;99.90
47482;DHT22;33219;47.410;9.730;2023-03-01T02:46:26;1.00;99.90
47482;DHT22;33219;47.410;9.730;2023-03-01T02:48:58;0.90;99.90
47482;DHT22;33219;47.410;9.730;2023-03-01T02:51:54;1.00;99.90
47482;DHT22;33219;47.410;9.730;2023-03-01T02:54:24;0.90;99.90
47482;DHT22;33219;47.410;9.730;2023-03-01T02:56:52;1.00;99.90
47482;DHT22;33219;47.410;9.730;2023-03-01T02:59:22;1.00;99.90
47482;DHT22;33219;47.410;9.730;2023-03-01T03:01:51;1.00;99.90
47482;DHT22;33219;47.410;9.730;2023-03-01T03:04:19;1.00;99.90
47482;DHT22;33219;47.410;9.730;2023-03-01T03:06:49;1.00;99.90
47482;DHT22;33219;47.410;9.730;2023-03-01T03:09:17;1.00;99.90
47482;DHT22;33219;47.410;9.730;2023-03-01T03:11:45;1.00;99.90
47482;DHT22;33219;47.410;9.730;2023-03-01T03:14:15;1.00;99.90
47482;DHT22;33219;47.410;9.730;2023-03-01T03:16:45;1.00;99.90
47482;DHT22;33219;47.410;9.730;2023-03-01T03:19:13;1.00;99.90
47482;DHT22;33219;47.410;9.730;2023-03-01T03:21:41;0.90;99.90
47482;DHT22;33219;47.410;9.730;2023-03-01T03:24:09;0.90;99.90
47482;DHT22;33219;47.410;9.730;2023-03-01T03:26:36;0.90;99.90
47482;DHT22;33219;47.410;9.730;2023-03-01T03:29:04;0.90;99.90
47482;DHT22;33219;47.410;9.730;2023-03-01T03:31:31;0.90;99.90
47482;DHT22;33219;47.410;9.730;2023-03-01T03:33:59;0.90;99.90
47482;DHT22;33219;47.410;9.730;2023-03-01T03:36:27;0.90;99.90
47482;DHT22;33219;47.410;9.730;2023-03-01T03:38:54;0.90;99.90
47482;DHT22;33219;47.410;9.730;2023-03-01T03:41:22;0.90;99.90
47482;DHT22;33219;47.410;9.730;2023-03-01T03:43:50;0.80;99.90
47482;DHT22;33219;47.410;9.730;2023-03-01T03:46:20;0.70;99.90
47482;DHT22;33219;47.410;9.730;2023-03-01T03:48:47;0.70;99.90
47482;DHT22;33219;47.410;9.730;2023-03-01T03:51:17;0.70;99.90
47482;DHT22;33219;47.410;9.730;2023-03-01T03:53:45;0.80;99.90
47482;DHT22;33219;47.410;9.730;2023-03-01T03:56:13;0.80;99.90
47482;DHT22;33219;47.410;9.730;2023-03-01T03:58:41;0.80;99.90
47482;DHT22;33219;47.410;9.730;2023-03-01T04:01:08;0.80;99.90
47482;DHT22;33219;47.410;9.730;2023-03-01T04:03:36;0.80;99.90
47482;DHT22;33219;47.410;9.730;2023-03-01T04:06:04;0.70;99.90
47482;DHT22;33219;47.410;9.730;2023-03-01T04:08:32;0.70;99.90
47482;DHT22;33219;47.410;9.730;2023-03-01T04:11:01;0.70;99.90
47482;DHT22;33219;47.410;9.730;2023-03-01T04:13:47;0.60;99.90
47482;DHT22;33219;47.410;9.730;2023-03-01T04:16:15;0.60;99.90
47482;DHT22;33219;47.410;9.730;2023-03-01T04:18:44;0.60;99.90
47482;DHT22;33219;47.410;9.730;2023-03-01T04:21:12;0.70;99.90
47482;DHT22;33219;47.410;9.730;2023-03-01T04:23:40;0.60;99.90
47482;DHT22;33219;47.410;9.730;2023-03-01T04:26:09;0.60;99.90
47482;DHT22;33219;47.410;9.730;2023-03-01T04:28:39;0.60;99.90
47482;DHT22;33219;47.410;9.730;2023-03-01T04:31:13;0.60;99.90
47482;DHT22;33219;47.410;9.730;2023-03-01T04:33:49;0.60;99.90
47482;DHT22;33219;47.410;9.730;2023-03-01T04:36:15;0.60;99.90
47482;DHT22;33219;47.410;9.730;2023-03-01T04:38:44;0.60;99.90
47482;DHT22;33219;47.410;9.730;2023-03-01T04:41:17;0.60;99.90
47482;DHT22;33219;47.410;9.730;2023-03-01T04:43:45;0.60;99.90
47482;DHT22;33219;47.410;9.730;2023-03-01T04:46:15;0.60;99.90
47482;DHT22;33219;47.410;9.730;2023-03-01T04:48:44;0.50;99.90
47482;DHT22;33219;47.410;9.730;2023-03-01T04:51:11;0.50;99.90
47482;DHT22;33219;47.410;9.730;2023-03-01T04:53:43;0.60;99.90
47482;DHT22;33219;47.410;9.730;2023-03-01T04:56:11;0.60;99.90
47482;DHT22;33219;47.410;9.730;2023-03-01T04:58:40;0.50;99.90
47482;DHT22;33219;47.410;9.730;2023-03-01T05:01:15;0.60;99.90
47482;DHT22;33219;47.410;9.730;2023-03-01T05:03:43;0.60;99.90
47482;DHT22;33219;47.410;9.730;2023-03-01T05:06:11;0.60;99.90
47482;DHT22;33219;47.410;9.730;2023-03-01T05:08:40;0.60;99.90
47482;DHT22;33219;47.410;9.730;2023-03-01T05:11:08;0.60;99.90
47482;DHT22;33219;47.410;9.730;2023-03-01T05:13:37;0.60;99.90
47482;DHT22;33219;47.410;9.730;2023-03-01T05:16:06;0.60;99.90
47482;DHT22;33219;47.410;9.730;2023-03-01T05:18:36;0.60;99.90
47482;DHT22;33219;47.410;9.730;2023-03-01T05:21:06;0.60;99.90
47482;DHT22;33219;47.410;9.730;2023-03-01T05:23:34;0.60;99.90
47482;DHT22;33219;47.410;9.730;2023-03-01T05:26:04;0.60;99.90
47482;DHT22;33219;47.410;9.730;2023-03-01T05:28:32;0.50;99.90
47482;DHT22;33219;47.410;9.730;2023-03-01T05:31:01;0.60;99.90
47482;DHT22;33219;47.410;9.730;2023-03-01T05:33:28;0.60;99.90
47482;DHT22;33219;47.410;9.730;2023-03-01T05:35:59;0.60;99.90
47482;DHT22;33219;47.410;9.730;2023-03-01T05:38:27;0.60;99.90
47482;DHT22;33219;47.410;9.730;2023-03-01T05:40:54;0.60;99.90
47482;DHT22;33219;47.410;9.730;2023-03-01T05:43:22;0.60;99.90
47482;DHT22;33219;47.410;9.730;2023-03-01T05:45:49;0.60;99.90
47482;DHT22;33219;47.410;9.730;2023-03-01T05:48:17;0.50;99.90
47482;DHT22;33219;47.410;9.730;2023-03-01T05:50:46;0.50;99.90
47482;DHT22;33219;47.410;9.730;2023-03-01T05:53:16;0.50;99.90
47482;DHT22;33219;47.410;9.730;2023-03-01T05:55:45;0.50;99.90
47482;DHT22;33219;47.410;9.730;2023-03-01T05:58:18;0.50;99.90
47482;DHT22;33219;47.410;9.730;2023-03-01T06:00:47;0.50;99.90
47482;DHT22;33219;47.410;9.730;2023-03-01T06:03:16;0.50;99.90
47482;DHT22;33219;47.410;9.730;2023-03-01T06:05:44;0.40;99.90
47482;DHT22;33219;47.410;9.730;2023-03-01T06:08:13;0.40;99.90
47482;DHT22;33219;47.410;9.730;2023-03-01T06:10:41;0.40;99.90
47482;DHT22;33219;47.410;9.730;2023-03-01T06:13:08;0.40;99.90
47482;DHT22;33219;47.410;9.730;2023-03-01T06:15:36;0.40;99.90
47482;DHT22;33219;47.410;9.730;2023-03-01T06:18:04;0.50;99.90
47482;DHT22;33219;47.410;9.730;2023-03-01T06:20:31;0.50;99.90
47482;DHT22;33219;47.410;9.730;2023-03-01T06:22:59;0.50;99.90
47482;DHT22;33219;47.410;9.730;2023-03-01T06:25:27;0.40;99.90
47482;DHT22;33219;47.410;9.730;2023-03-01T06:27:56;0.40;99.90
47482;DHT22;33219;47.410;9.730;2023-03-01T06:30:26;0.40;99.90
47482;DHT22;33219;47.410;9.730;2023-03-01T06:32:56;0.50;99.90
47482;DHT22;33219;47.410;9.730;2023-03-01T06:35:30;0.50;99.90
47482;DHT22;33219;47.410;9.730;2023-03-01T06:38:05;0.50;99.90
47482;DHT22;33219;47.410;9.730;2023-03-01T06:44:29;0.60;99.90
47482;DHT22;33219;47.410;9.730;2023-03-01T06:53:18;0.70;99.90
47482;DHT22;33219;47.410;9.730;2023-03-01T06:55:56;0.70;99.90
47482;DHT22;33219;47.410;9.730;2023-03-01T06:58:30;0.70;99.90
47482;DHT22;33219;47.410;9.730;2023-03-01T07:01:08;0.80;99.90
47482;DHT22;33219;47.410;9.730;2023-03-01T07:03:41;0.80;99.90
47482;DHT22;33219;47.410;9.730;2023-03-01T07:06:16;0.80;99.90
47482;DHT22;33219;47.410;9.730;2023-03-01T07:08:50;0.80;99.90
47482;DHT22;33219;47.410;9.730;2023-03-01T07:11:25;0.80;99.90
47482;DHT22;33219;47.410;9.730;2023-03-01T07:14:00;0.90;99.90
47482;DHT22;33219;47.410;9.730;2023-03-01T07:16:35;0.90;99.90
47482;DHT22;33219;47.410;9.730;2023-03-01T07:19:13;0.90;99.90
47482;DHT22;33219;47.410;9.730;2023-03-01T07:21:46;0.90;99.90
47482;DHT22;33219;47.410;9.730;2023-03-01T07:24:21;0.90;99.90
47482;DHT22;33219;47.410;9.730;2023-03-01T07:26:58;0.90;99.90
47482;DHT22;33219;47.410;9.730;2023-03-01T07:29:32;0.90;99.90
47482;DHT22;33219;47.410;9.730;2023-03-01T07:32:08;0.90;99.90
47482;DHT22;33219;47.410;9.730;2023-03-01T07:34:42;0.90;99.90
47482;DHT22;33219;47.410;9.730;2023-03-01T07:37:20;1.00;99.90
47482;DHT22;33219;47.410;9.730;2023-03-01T07:39:59;1.00;99.90
47482;DHT22;33219;47.410;9.730;2023-03-01T07:45:18;1.10;99.90
47482;DHT22;33219;47.410;9.730;2023-03-01T07:47:52;1.20;99.90
47482;DHT22;33219;47.410;9.730;2023-03-01T07:50:55;1.30;99.90
47482;DHT22;33219;47.410;9.730;2023-03-01T07:53:51;1.30;99.90
47482;DHT22;33219;47.410;9.730;2023-03-01T07:59:46;1.30;99.90
47482;DHT22;33219;47.410;9.730;2023-03-01T08:02:15;1.20;99.90
47482;DHT22;33219;47.410;9.730;2023-03-01T08:10:55;1.40;99.90
47482;DHT22;33219;47.410;9.730;2023-03-01T08:20:28;1.60;99.90
47482;DHT22;33219;47.410;9.730;2023-03-01T08:42:11;1.70;99.90
47482;DHT22;33219;47.410;9.730;2023-03-01T08:44:49;1.70;99.90
47482;DHT22;33219;47.410;9.730;2023-03-01T08:47:22;1.70;99.90
47482;DHT22;33219;47.410;9.730;2023-03-01T08:50:03;1.70;99.90
47482;DHT22;33219;47.410;9.730;2023-03-01T08:52:38;1.80;99.90
47482;DHT22;33219;47.410;9.730;2023-03-01T08:55:13;1.80;99.90
47482;DHT22;33219;47.410;9.730;2023-03-01T08:57:47;1.90;99.90
47482;DHT22;33219;47.410;9.730;2023-03-01T09:00:22;2.00;99.90
47482;DHT22;33219;47.410;9.730;2023-03-01T09:02:56;1.90;99.90
47482;DHT22;33219;47.410;9.730;2023-03-01T09:05:35;2.00;99.90
47482;DHT22;33219;47.410;9.730;2023-03-01T09:08:06;2.00;99.90
47482;DHT22;33219;47.410;9.730;2023-03-01T09:10:39;2.10;99.90
47482;DHT22;33219;47.410;9.730;2023-03-01T09:13:15;2.20;99.90
47482;DHT22;33219;47.410;9.730;2023-03-01T09:15:49;2.30;99.90
47482;DHT22;33219;47.410;9.730;2023-03-01T09:18:24;2.30;99.90
47482;DHT22;33219;47.410;9.730;2023-03-01T09:21:16;2.50;99.90
47482;DHT22;33219;47.410;9.730;2023-03-01T09:23:55;2.50;99.90
47482;DHT22;33219;47.410;9.730;2023-03-01T09:26:37;2.50;99.90
47482;DHT22;33219;47.410;9.730;2023-03-01T09:29:26;2.50;99.90
47482;DHT22;33219;47.410;9.730;2023-03-01T09:32:24;2.50;99.90
47482;DHT22;33219;47.410;9.730;2023-03-01T09:35:13;2.60;99.90
47482;DHT22;33219;47.410;9.730;2023-03-01T09:38:17;2.80;99.90
47482;DHT22;33219;47.410;9.730;2023-03-01T09:41:23;2.80;99.90
47482;DHT22;33219;47.410;9.730;2023-03-01T09:56:45;2.60;99.90
47482;DHT22;33219;47.410;9.730;2023-03-01T10:20:45;3.00;99.90
47482;DHT22;33219;47.410;9.730;2023-03-01T10:23:40;2.90;99.90
47482;DHT22;33219;47.410;9.730;2023-03-01T10:29:12;3.00;99.90
47482;DHT22;33219;47.410;9.730;2023-03-01T10:31:52;3.30;99.90
47482;DHT22;33219;47.410;9.730;2023-03-01T10:34:35;3.60;99.90
47482;DHT22;33219;47.410;9.730;2023-03-01T10:37:34;3.80;99.50
47482;DHT22;33219;47.410;9.730;2023-03-01T10:40:10;3.90;99.20
47482;DHT22;33219;47.410;9.730;2023-03-01T10:42:50;4.20;99.00
47482;DHT22;33219;47.410;9.730;2023-03-01T10:45:38;4.40;98.40
47482;DHT22;33219;47.410;9.730;2023-03-01T10:48:20;4.50;98.30
47482;DHT22;33219;47.410;9.730;2023-03-01T10:53:58;4.50;97.90
47482;DHT22;33219;47.410;9.730;2023-03-01T10:56:20;4.70;97.50
47482;DHT22;33219;47.410;9.730;2023-03-01T10:59:04;4.70;97.60
47482;DHT22;33219;47.410;9.730;2023-03-01T11:01:38;4.80;97.70
47482;DHT22;33219;47.410;9.730;2023-03-01T11:04:18;4.90;97.00
47482;DHT22;33219;47.410;9.730;2023-03-01T11:06:57;4.70;97.10
47482;DHT22;33219;47.410;9.730;2023-03-01T11:09:26;4.80;97.40
47482;DHT22;33219;47.410;9.730;2023-03-01T11:12:01;4.60;97.40
47482;DHT22;33219;47.410;9.730;2023-03-01T11:14:35;4.70;97.20
47482;DHT22;33219;47.410;9.730;2023-03-01T11:17:12;4.80;97.20
47482;DHT22;33219;47.410;9.730;2023-03-01T11:19:59;5.00;96.70
47482;DHT22;33219;47.410;9.730;2023-03-01T11:22:23;4.60;97.10
47482;DHT22;33219;47.410;9.730;2023-03-01T11:24:56;4.60;97.20
47482;DHT22;33219;47.410;9.730;2023-03-01T11:27:34;4.40;97.40
47482;DHT22;33219;47.410;9.730;2023-03-01T11:36:51;4.30;97.80
47482;DHT22;33219;47.410;9.730;2023-03-01T11:45:39;4.30;97.20
47482;DHT22;33219;47.410;9.730;2023-03-01T11:50:59;4.30;97.60
47482;DHT22;33219;47.410;9.730;2023-03-01T11:56:16;5.00;96.60
47482;DHT22;33219;47.410;9.730;2023-03-01T11:59:13;5.10;96.50
47482;DHT22;33219;47.410;9.730;2023-03-01T12:05:08;5.90;95.20
47482;DHT22;33219;47.410;9.730;2023-03-01T12:07:58;6.10;94.70
47482;DHT22;33219;47.410;9.730;2023-03-01T12:10:31;6.10;94.30
47482;DHT22;33219;47.410;9.730;2023-03-01T12:28:37;6.00;95.30
47482;DHT22;33219;47.410;9.730;2023-03-01T12:34:03;5.80;95.40
47482;DHT22;33219;47.410;9.730;2023-03-01T12:36:37;5.60;96.00
47482;DHT22;33219;47.410;9.730;2023-03-01T12:45:23;5.90;96.30
47482;DHT22;33219;47.410;9.730;2023-03-01T12:50:36;5.90;95.90
47482;DHT22;33219;47.410;9.730;2023-03-01T12:52:57;6.20;96.10
47482;DHT22;33219;47.410;9.730;2023-03-01T12:55:39;6.10;96.30
47482;DHT22;33219;47.410;9.730;2023-03-01T12:58:26;6.00;96.50
47482;DHT22;33219;47.410;9.730;2023-03-01T13:11:54;6.00;96.10
47482;DHT22;33219;47.410;9.730;2023-03-01T13:16:54;6.50;95.80
47482;DHT22;33219;47.410;9.730;2023-03-01T13:19:24;6.60;95.50
47482;DHT22;33219;47.410;9.730;2023-03-01T13:21:54;6.90;95.60
47482;DHT22;33219;47.410;9.730;2023-03-01T13:24:42;6.40;95.90
47482;DHT22;33219;47.410;9.730;2023-03-01T13:29:52;6.10;96.60
47482;DHT22;33219;47.410;9.730;2023-03-01T13:32:25;6.10;96.50
47482;DHT22;33219;47.410;9.730;2023-03-01T13:34:59;6.10;96.50
47482;DHT22;33219;47.410;9.730;2023-03-01T13:37:30;6.20;96.50
47482;DHT22;33219;47.410;9.730;2023-03-01T13:40:01;6.20;96.60
47482;DHT22;33219;47.410;9.730;2023-03-01T13:42:34;6.20;96.20
47482;DHT22;33219;47.410;9.730;2023-03-01T13:45:16;6.20;96.10
47482;DHT22;33219;47.410;9.730;2023-03-01T13:47:43;6.20;96.00
47482;DHT22;33219;47.410;9.730;2023-03-01T13:50:22;6.20;95.80
47482;DHT22;33219;47.410;9.730;2023-03-01T13:52:53;6.30;96.10
47482;DHT22;33219;47.410;9.730;2023-03-01T13:55:24;6.10;96.30
47482;DHT22;33219;47.410;9.730;2023-03-01T13:57:54;6.10;96.40
47482;DHT22;33219;47.410;9.730;2023-03-01T14:00:33;5.90;96.90
47482;DHT22;33219;47.410;9.730;2023-03-01T14:05:31;5.90;97.10
47482;DHT22;33219;47.410;9.730;2023-03-01T14:07:59;6.00;96.90
47482;DHT22;33219;47.410;9.730;2023-03-01T14:10:35;5.90;97.00
47482;DHT22;33219;47.410;9.730;2023-03-01T14:13:48;5.70;97.00
47482;DHT22;33219;47.410;9.730;2023-03-01T14:15:43;5.80;96.70
47482;DHT22;33219;47.410;9.730;2023-03-01T14:18:51;5.80;96.90
47482;DHT22;33219;47.410;9.730;2023-03-01T14:20:49;5.80;97.00
47482;DHT22;33219;47.410;9.730;2023-03-01T14:23:21;5.60;97.30
47482;DHT22;33219;47.410;9.730;2023-03-01T14:25:56;5.50;97.70
47482;DHT22;33219;47.410;9.730;2023-03-01T14:28:26;5.60;97.50
47482;DHT22;33219;47.410;9.730;2023-03-01T14:31:01;5.60;97.30
47482;DHT22;33219;47.410;9.730;2023-03-01T14:33:29;5.60;97.50
47482;DHT22;33219;47.410;9.730;2023-03-01T14:36:02;5.40;97.50
47482;DHT22;33219;47.410;9.730;2023-03-01T14:38:38;5.30;97.90
47482;DHT22;33219;47.410;9.730;2023-03-01T14:41:10;5.20;97.90
47482;DHT22;33219;47.410;9.730;2023-03-01T14:43:36;5.10;98.00
47482;DHT22;33219;47.410;9.730;2023-03-01T14:46:04;4.90;99.20
47482;DHT22;33219;47.410;9.730;2023-03-01T14:48:32;4.80;98.70
47482;DHT22;33219;47.410;9.730;2023-03-01T14:51:00;4.90;98.60
47482;DHT22;33219;47.410;9.730;2023-03-01T14:53:29;4.90;98.50
47482;DHT22;33219;47.410;9.730;2023-03-01T14:56:01;4.80;99.10
47482;DHT22;33219;47.410;9.730;2023-03-01T14:58:31;4.80;98.80
47482;DHT22;33219;47.410;9.730;2023-03-01T15:01:01;4.70;98.60
47482;DHT22;33219;47.410;9.730;2023-03-01T15:03:38;4.60;99.20
47482;DHT22;33219;47.410;9.730;2023-03-01T15:06:06;4.60;99.10
47482;DHT22;33219;47.410;9.730;2023-03-01T15:08:35;4.60;99.40
47482;DHT22;33219;47.410;9.730;2023-03-01T15:11:30;4.60;99.30
47482;DHT22;33219;47.410;9.730;2023-03-01T15:13:58;4.50;99.70
47482;DHT22;33219;47.410;9.730;2023-03-01T15:16:33;4.50;99.80
47482;DHT22;33219;47.410;9.730;2023-03-01T15:19:04;4.40;99.90
47482;DHT22;33219;47.410;9.730;2023-03-01T15:21:34;4.30;99.90
47482;DHT22;33219;47.410;9.730;2023-03-01T15:24:08;4.30;99.90
47482;DHT22;33219;47.410;9.730;2023-03-01T15:26:42;4.20;99.90
47482;DHT22;33219;47.410;9.730;2023-03-01T15:29:15;4.10;99.90
47482;DHT22;33219;47.410;9.730;2023-03-01T15:31:43;4.10;99.90
47482;DHT22;33219;47.410;9.730;2023-03-01T15:34:22;4.10;99.90
47482;DHT22;33219;47.410;9.730;2023-03-01T15:36:52;4.00;99.90
47482;DHT22;33219;47.410;9.730;2023-03-01T15:39:39;4.00;99.90
47482;DHT22;33219;47.410;9.730;2023-03-01T15:47:51;4.00;99.90
47482;DHT22;33219;47.410;9.730;2023-03-01T15:50:22;3.90;99.90
47482;DHT22;33219;47.410;9.730;2023-03-01T15:52:51;4.00;99.90
47482;DHT22;33219;47.410;9.730;2023-03-01T15:55:25;4.00;99.90
47482;DHT22;33219;47.410;9.730;2023-03-01T15:58:19;3.90;99.90
47482;DHT22;33219;47.410;9.730;2023-03-01T16:00:44;4.00;99.90
47482;DHT22;33219;47.410;9.730;2023-03-01T16:03:12;3.90;99.90
47482;DHT22;33219;47.410;9.730;2023-03-01T16:05:39;3.80;99.90
47482;DHT22;33219;47.410;9.730;2023-03-01T16:08:07;3.80;99.90
47482;DHT22;33219;47.410;9.730;2023-03-01T16:10:35;3.70;99.90
47482;DHT22;33219;47.410;9.730;2023-03-01T16:13:03;3.70;99.90
47482;DHT22;33219;47.410;9.730;2023-03-01T16:15:33;3.70;99.90
47482;DHT22;33219;47.410;9.730;2023-03-01T16:18:03;3.70;99.90
47482;DHT22;33219;47.410;9.730;2023-03-01T16:20:32;3.60;99.90
47482;DHT22;33219;47.410;9.730;2023-03-01T16:23:02;3.60;99.90
47482;DHT22;33219;47.410;9.730;2023-03-01T16:25:30;3.50;99.90
47482;DHT22;33219;47.410;9.730;2023-03-01T16:27:58;3.50;99.90
47482;DHT22;33219;47.410;9.730;2023-03-01T16:30:28;3.50;99.90
47482;DHT22;33219;47.410;9.730;2023-03-01T16:32:56;3.50;99.90
47482;DHT22;33219;47.410;9.730;2023-03-01T16:35:23;3.40;99.90
47482;DHT22;33219;47.410;9.730;2023-03-01T16:37:51;3.40;99.90
47482;DHT22;33219;47.410;9.730;2023-03-01T16:40:24;3.30;99.90
47482;DHT22;33219;47.410;9.730;2023-03-01T16:42:55;3.30;99.90
47482;DHT22;33219;47.410;9.730;2023-03-01T16:45:25;3.30;99.90
47482;DHT22;33219;47.410;9.730;2023-03-01T16:47:55;3.30;99.90
47482;DHT22;33219;47.410;9.730;2023-03-01T16:50:28;3.30;99.90
47482;DHT22;33219;47.410;9.730;2023-03-01T16:53:02;3.30;99.90
47482;DHT22;33219;47.410;9.730;2023-03-01T16:55:31;3.20;99.90
47482;DHT22;33219;47.410;9.730;2023-03-01T16:58:01;3.20;99.90
47482;DHT22;33219;47.410;9.730;2023-03-01T17:00:33;3.20;99.90
47482;DHT22;33219;47.410;9.730;2023-03-01T17:03:03;3.10;99.90
47482;DHT22;33219;47.410;9.730;2023-03-01T17:05:32;3.10;99.90
47482;DHT22;33219;47.410;9.730;2023-03-01T17:08:01;3.10;99.90
47482;DHT22;33219;47.410;9.730;2023-03-01T17:10:28;3.10;99.90
47482;DHT22;33219;47.410;9.730;2023-03-01T17:12:58;3.10;99.90
47482;DHT22;33219;47.410;9.730;2023-03-01T17:15:25;3.10;99.90
47482;DHT22;33219;47.410;9.730;2023-03-01T17:17:57;3.10;99.90
47482;DHT22;33219;47.410;9.730;2023-03-01T17:20:27;3.10;99.90
47482;DHT22;33219;47.410;9.730;2023-03-01T17:22:55;3.10;99.90
47482;DHT22;33219;47.410;9.730;2023-03-01T17:25:22;3.10;99.90
47482;DHT22;33219;47.410;9.730;2023-03-01T17:27:50;3.10;99.90
47482;DHT22;33219;47.410;9.730;2023-03-01T17:30:18;3.10;99.90
47482;DHT22;33219;47.410;9.730;2023-03-01T17:32:46;3.10;99.90
47482;DHT22;33219;47.410;9.730;2023-03-01T17:35:14;3.00;99.90
47482;DHT22;33219;47.410;9.730;2023-03-01T17:37:41;3.00;99.90
47482;DHT22;33219;47.410;9.730;2023-03-01T17:40:11;3.10;99.90
47482;DHT22;33219;47.410;9.730;2023-03-01T17:42:39;3.00;99.90
47482;DHT22;33219;47.410;9.730;2023-03-01T17:45:07;3.00;99.90
47482;DHT22;33219;47.410;9.730;2023-03-01T17:47:35;2.90;99.90
47482;DHT22;33219;47.410;9.730;2023-03-01T17:50:05;2.90;99.90
47482;DHT22;33219;47.410;9.730;2023-03-01T17:52:33;2.90;99.90
47482;DHT22;33219;47.410;9.730;2023-03-01T17:55:01;2.90;99.90
47482;DHT22;33219;47.410;9.730;2023-03-01T17:57:29;2.80;99.90
47482;DHT22;33219;47.410;9.730;2023-03-01T17:59:57;2.80;99.90
47482;DHT22;33219;47.410;9.730;2023-03-01T18:02:25;2.80;99.90
47482;DHT22;33219;47.410;9.730;2023-03-01T18:04:57;2.80;99.90
47482;DHT22;33219;47.410;9.730;2023-03-01T18:07:28;2.80;99.90
47482;DHT22;33219;47.410;9.730;2023-03-01T18:09:56;2.80;99.90
47482;DHT22;33219;47.410;9.730;2023-03-01T18:12:24;2.80;99.90
47482;DHT22;33219;47.410;9.730;2023-03-01T18:14:52;2.80;99.90
47482;DHT22;33219;47.410;9.730;2023-03-01T18:17:22;2.70;99.90
47482;DHT22;33219;47.410;9.730;2023-03-01T18:19:50;2.70;99.90
47482;DHT22;33219;47.410;9.730;2023-03-01T18:22:18;2.70;99.90
47482;DHT22;33219;47.410;9.730;2023-03-01T18:24:46;2.70;99.90
47482;DHT22;33219;47.410;9.730;2023-03-01T18:27:14;2.70;99.90
47482;DHT22;33219;47.410;9.730;2023-03-01T18:29:42;2.70;99.90
47482;DHT22;33219;47.410;9.730;2023-03-01T18:32:09;2.70;99.90
47482;DHT22;33219;47.410;9.730;2023-03-01T18:34:37;2.70;99.90
47482;DHT22;33219;47.410;9.730;2023-03-01T18:37:06;2.80;99.90
47482;DHT22;33219;47.410;9.730;2023-03-01T18:39:35;2.80;99.90
47482;DHT22;33219;47.410;9.730;2023-03-01T18:42:05;2.80;99.90
47482;DHT22;33219;47.410;9.730;2023-03-01T18:44:33;2.80;99.90
47482;DHT22;33219;47.410;9.730;2023-03-01T18:47:01;2.80;99.90
47482;DHT22;33219;47.410;9.730;2023-03-01T18:49:29;2.70;99.90
47482;DHT22;33219;47.410;9.730;2023-03-01T18:51:57;2.70;99.90
47482;DHT22;33219;47.410;9.730;2023-03-01T18:54:26;2.70;99.90
47482;DHT22;33219;47.410;9.730;2023-03-01T18:56:54;2.70;99.90
47482;DHT22;33219;47.410;9.730;2023-03-01T18:59:22;2.70;99.90